createdAt,value
2018-04-30T00:00:52.000Z,60.70
2018-04-30T00:01:51.997Z,53.40
2018-04-30T00:02:52.000Z,55.00
2018-04-30T00:03:51.991Z,54.90
2018-04-30T00:04:51.996Z,51.50
2018-04-30T00:05:51.993Z,54.30
2018-04-30T00:06:51.982Z,53.70
2018-04-30T00:07:51.980Z,53.70
2018-04-30T00:08:51.975Z,55.40
2018-04-30T00:09:51.975Z,54.80
2018-04-30T00:10:51.969Z,53.80
2018-04-30T00:11:51.968Z,56.20
2018-04-30T00:12:51.962Z,58.40
2018-04-30T00:13:51.959Z,58.80
2018-04-30T00:14:51.957Z,60.30
2018-04-30T00:15:51.953Z,60.00
2018-04-30T00:16:51.952Z,56.30
2018-04-30T00:17:51.949Z,58.50
2018-04-30T00:18:51.946Z,60.10
2018-04-30T00:19:51.943Z,59.10
2018-04-30T00:20:51.938Z,61.70
2018-04-30T00:21:51.932Z,58.00
2018-04-30T00:22:51.929Z,59.90
2018-04-30T00:23:51.925Z,58.70
2018-04-30T00:24:51.921Z,59.50
2018-04-30T00:25:51.918Z,62.60
2018-04-30T00:26:51.914Z,58.60
2018-04-30T00:27:51.911Z,61.30
2018-04-30T00:28:51.907Z,61.50
2018-04-30T00:29:51.904Z,65.60
2018-04-30T00:30:51.904Z,64.10
2018-04-30T00:31:51.901Z,60.00
2018-04-30T00:32:51.892Z,62.80
2018-04-30T00:33:51.890Z,64.50
2018-04-30T00:34:51.887Z,64.70
2018-04-30T00:35:51.883Z,66.70
2018-04-30T00:36:51.883Z,67.40
2018-04-30T00:37:51.880Z,66.80
2018-04-30T00:38:51.871Z,70.50
2018-04-30T00:39:51.869Z,68.20
2018-04-30T00:40:51.865Z,67.30
2018-04-30T00:41:51.861Z,67.40
2018-04-30T00:42:51.859Z,71.30
2018-04-30T00:43:51.855Z,69.30
2018-04-30T00:44:51.851Z,67.30
2018-04-30T00:45:51.847Z,71.40
2018-04-30T00:46:51.844Z,68.10
2018-04-30T00:47:51.840Z,68.90
2018-04-30T00:48:51.841Z,70.80
2018-04-30T00:49:51.839Z,70.10
2018-04-30T00:50:51.881Z,65.30
2018-04-30T00:51:51.832Z,64.90
2018-04-30T00:52:51.828Z,65.00
2018-04-30T00:53:51.820Z,65.00
2018-04-30T00:54:51.816Z,64.00
2018-04-30T00:55:51.812Z,62.40
2018-04-30T00:56:51.808Z,61.40
2018-04-30T00:57:51.806Z,59.30
2018-04-30T00:58:51.803Z,58.30
2018-04-30T00:59:51.798Z,55.70
2018-04-30T01:00:51.794Z,59.30
2018-04-30T01:01:51.791Z,57.70
2018-04-30T01:02:51.796Z,53.70
2018-04-30T01:03:51.793Z,55.00
2018-04-30T01:04:51.780Z,57.50
2018-04-30T01:05:51.777Z,57.70
2018-04-30T01:06:51.773Z,54.60
2018-04-30T01:07:51.770Z,53.80
2018-04-30T01:08:51.767Z,56.70
2018-04-30T01:09:51.763Z,57.30
2018-04-30T01:10:51.764Z,53.40
2018-04-30T01:11:51.760Z,56.70
2018-04-30T01:12:51.752Z,60.00
2018-04-30T01:13:51.749Z,59.40
2018-04-30T01:14:51.750Z,62.00
2018-04-30T01:15:51.746Z,62.40
2018-04-30T01:16:51.738Z,62.40
2018-04-30T01:17:51.735Z,62.70
2018-04-30T01:18:51.787Z,61.30
2018-04-30T01:19:51.729Z,65.50
2018-04-30T01:20:51.729Z,62.70
2018-04-30T01:21:51.721Z,65.90
2018-04-30T01:22:51.718Z,63.30
2018-04-30T01:23:51.720Z,65.10
2018-04-30T01:24:51.712Z,60.40
2018-04-30T01:25:51.708Z,62.00
2018-04-30T01:26:51.706Z,65.00
2018-04-30T01:27:51.701Z,61.50
2018-04-30T01:28:51.701Z,65.90
2018-04-30T01:29:51.699Z,66.90
2018-04-30T01:30:51.691Z,65.20
2018-04-30T01:31:51.688Z,63.00
2018-04-30T01:32:51.688Z,64.10
2018-04-30T01:33:51.684Z,62.40
2018-04-30T01:34:51.677Z,61.90
2018-04-30T01:35:51.674Z,60.90
2018-04-30T01:36:51.671Z,63.70
2018-04-30T01:37:51.668Z,58.50
2018-04-30T01:38:51.664Z,56.30
2018-04-30T01:39:51.662Z,58.50
2018-04-30T01:40:51.658Z,58.40
2018-04-30T01:41:51.654Z,57.40
2018-04-30T01:42:51.655Z,57.30
2018-04-30T01:43:51.652Z,54.80
2018-04-30T01:44:51.643Z,54.10
2018-04-30T01:45:51.640Z,56.30
2018-04-30T01:46:51.640Z,56.90
2018-04-30T01:47:51.638Z,54.00
2018-04-30T01:48:51.629Z,54.00
2018-04-30T01:49:51.626Z,51.70
2018-04-30T01:50:51.624Z,50.30
2018-04-30T01:51:51.619Z,52.80
2018-04-30T01:52:51.616Z,51.70
2018-04-30T01:53:51.633Z,52.10
2018-04-30T01:54:51.613Z,51.30
2018-04-30T01:55:51.606Z,51.50
2018-04-30T01:56:51.603Z,44.70
2018-04-30T01:57:51.598Z,47.80
2018-04-30T01:58:51.595Z,47.00
2018-04-30T01:59:51.592Z,48.30
2018-04-30T02:00:51.592Z,50.50
2018-04-30T02:01:51.590Z,48.40
2018-04-30T02:02:51.581Z,48.90
2018-04-30T02:03:51.578Z,48.40
2018-04-30T02:04:51.578Z,51.00
2018-04-30T02:05:51.575Z,50.20
2018-04-30T02:06:51.568Z,52.50
2018-04-30T02:07:51.564Z,49.40
2018-04-30T02:08:51.560Z,49.00
2018-04-30T02:09:51.558Z,47.90
2018-04-30T02:10:51.554Z,46.70
2018-04-30T02:11:51.551Z,47.90
2018-04-30T02:12:51.547Z,50.80
2018-04-30T02:13:51.544Z,49.30
2018-04-30T02:14:51.550Z,48.70
2018-04-30T02:15:51.542Z,46.40
2018-04-30T02:16:51.535Z,50.40
2018-04-30T02:17:51.531Z,50.10
2018-04-30T02:18:51.532Z,49.30
2018-04-30T02:19:51.529Z,50.80
2018-04-30T02:20:51.520Z,49.00
2018-04-30T02:21:51.521Z,48.40
2018-04-30T02:22:51.515Z,53.20
2018-04-30T02:23:51.512Z,53.60
2018-04-30T02:24:51.509Z,53.50
2018-04-30T02:25:51.505Z,50.30
2018-04-30T02:26:51.502Z,49.40
2018-04-30T02:27:51.500Z,46.90
2018-04-30T02:28:51.495Z,50.10
2018-04-30T02:29:51.492Z,53.50
2018-04-30T02:30:51.489Z,50.50
2018-04-30T02:31:51.487Z,53.80
2018-04-30T02:32:51.486Z,51.60
2018-04-30T02:33:51.484Z,54.30
2018-04-30T02:34:51.477Z,53.90
2018-04-30T02:35:51.474Z,51.50
2018-04-30T02:36:51.474Z,50.90
2018-04-30T02:37:51.471Z,53.60
2018-04-30T02:38:51.465Z,54.70
2018-04-30T02:39:51.461Z,51.70
2018-04-30T02:40:51.459Z,56.10
2018-04-30T02:41:51.455Z,54.90
2018-04-30T02:42:51.453Z,51.00
2018-04-30T02:43:51.493Z,52.70
2018-04-30T02:44:51.446Z,52.50
2018-04-30T02:45:51.443Z,54.40
2018-04-30T02:46:51.445Z,55.40
2018-04-30T02:47:51.441Z,55.90
2018-04-30T02:48:51.433Z,56.10
2018-04-30T02:49:51.430Z,57.20
2018-04-30T02:50:51.432Z,59.50
2018-04-30T02:51:51.428Z,57.50
2018-04-30T02:52:51.420Z,57.00
2018-04-30T02:53:51.419Z,60.20
2018-04-30T02:54:51.415Z,55.80
2018-04-30T02:55:51.411Z,61.00
2018-04-30T02:56:51.407Z,59.40
2018-04-30T02:57:51.404Z,59.50
2018-04-30T02:58:51.401Z,59.30
2018-04-30T02:59:51.403Z,60.70
2018-04-30T03:00:51.395Z,60.00
2018-04-30T03:01:51.393Z,59.70
2018-04-30T03:02:51.389Z,63.40
2018-04-30T03:03:51.390Z,61.90
2018-04-30T03:04:51.387Z,60.20
2018-04-30T03:05:51.386Z,61.10
2018-04-30T03:06:51.376Z,61.50
2018-04-30T03:07:51.374Z,59.90
2018-04-30T03:08:51.374Z,62.10
2018-04-30T03:09:51.469Z,61.80
2018-04-30T03:10:51.373Z,61.10
2018-04-30T03:11:51.368Z,57.40
2018-04-30T03:12:51.357Z,58.80
2018-04-30T03:13:51.354Z,59.70
2018-04-30T03:14:51.351Z,61.20
2018-04-30T03:15:51.348Z,60.20
2018-04-30T03:16:51.349Z,61.20
2018-04-30T03:17:51.345Z,62.60
2018-04-30T03:18:51.338Z,64.20
2018-04-30T03:19:51.336Z,66.40
2018-04-30T03:20:51.332Z,63.70
2018-04-30T03:21:51.333Z,66.10
2018-04-30T03:22:51.326Z,63.50
2018-04-30T03:23:51.323Z,65.60
2018-04-30T03:24:51.320Z,67.80
2018-04-30T03:25:51.317Z,66.00
2018-04-30T03:26:51.313Z,65.60
2018-04-30T03:27:51.310Z,61.80
2018-04-30T03:28:51.310Z,63.00
2018-04-30T03:29:51.308Z,63.10
2018-04-30T03:30:51.305Z,60.10
2018-04-30T03:31:51.302Z,58.60
2018-04-30T03:32:51.293Z,57.80
2018-04-30T03:33:51.293Z,59.60
2018-04-30T03:34:51.287Z,56.10
2018-04-30T03:35:51.284Z,58.40
2018-04-30T03:36:51.280Z,56.40
2018-04-30T03:37:51.279Z,56.30
2018-04-30T03:38:51.274Z,57.90
2018-04-30T03:39:51.272Z,57.00
2018-04-30T03:40:51.267Z,58.70
2018-04-30T03:41:51.264Z,55.70
2018-04-30T03:42:51.267Z,53.10
2018-04-30T03:43:51.270Z,55.50
2018-04-30T03:44:51.254Z,53.20
2018-04-30T03:45:51.251Z,53.10
2018-04-30T03:46:51.248Z,54.80
2018-04-30T03:47:51.246Z,56.60
2018-04-30T03:48:51.245Z,50.90
2018-04-30T03:49:51.243Z,53.70
2018-04-30T03:50:51.234Z,50.90
2018-04-30T03:51:51.232Z,52.30
2018-04-30T03:52:51.228Z,51.40
2018-04-30T03:53:51.225Z,51.00
2018-04-30T03:54:51.222Z,50.30
2018-04-30T03:55:51.219Z,50.60
2018-04-30T03:56:51.215Z,50.20
2018-04-30T03:57:51.211Z,51.20
2018-04-30T03:58:51.208Z,48.90
2018-04-30T03:59:51.207Z,49.70
2018-04-30T04:00:51.206Z,49.20
2018-04-30T04:01:51.207Z,48.90
2018-04-30T04:02:51.199Z,45.20
2018-04-30T04:03:51.197Z,44.80
2018-04-30T04:04:51.194Z,46.60
2018-04-30T04:05:51.185Z,46.80
2018-04-30T04:06:51.182Z,46.70
2018-04-30T04:07:51.180Z,44.10
2018-04-30T04:08:51.176Z,43.90
2018-04-30T04:09:51.171Z,41.30
2018-04-30T04:10:51.169Z,45.90
2018-04-30T04:11:51.166Z,44.80
2018-04-30T04:12:51.161Z,42.00
2018-04-30T04:13:51.157Z,41.10
2018-04-30T04:14:51.160Z,38.60
2018-04-30T04:15:51.155Z,37.00
2018-04-30T04:16:51.148Z,38.50
2018-04-30T04:17:51.144Z,36.80
2018-04-30T04:18:51.147Z,34.70
2018-04-30T04:19:51.139Z,33.40
2018-04-30T04:20:51.134Z,33.10
2018-04-30T04:21:51.131Z,34.60
2018-04-30T04:22:51.134Z,32.80
2018-04-30T04:23:51.129Z,32.50
2018-04-30T04:24:51.120Z,33.70
2018-04-30T04:25:51.117Z,33.90
2018-04-30T04:26:51.118Z,33.20
2018-04-30T04:27:51.115Z,33.50
2018-04-30T04:28:51.107Z,32.60
2018-04-30T04:29:51.104Z,31.80
2018-04-30T04:30:51.100Z,30.70
2018-04-30T04:31:51.097Z,30.40
2018-04-30T04:32:51.093Z,31.10
2018-04-30T04:33:51.090Z,30.20
2018-04-30T04:34:51.087Z,32.20
2018-04-30T04:35:51.084Z,29.60
2018-04-30T04:36:51.081Z,29.90
2018-04-30T04:37:51.077Z,30.00
2018-04-30T04:38:51.073Z,29.60
2018-04-30T04:39:51.069Z,28.00
2018-04-30T04:40:51.070Z,30.40
2018-04-30T04:41:51.067Z,32.50
2018-04-30T04:42:51.060Z,30.10
2018-04-30T04:43:51.056Z,30.10
2018-04-30T04:44:51.057Z,29.10
2018-04-30T04:45:51.052Z,29.40
2018-04-30T04:46:51.046Z,30.30
2018-04-30T04:47:51.042Z,25.00
2018-04-30T04:48:51.038Z,26.10
2018-04-30T04:49:51.039Z,25.60
2018-04-30T04:50:51.032Z,24.80
2018-04-30T04:51:51.029Z,23.70
2018-04-30T04:52:51.025Z,23.60
2018-04-30T04:53:51.023Z,22.20
2018-04-30T04:54:51.022Z,22.60
2018-04-30T04:55:51.019Z,22.20
2018-04-30T04:56:51.010Z,22.00
2018-04-30T04:57:51.007Z,22.20
2018-04-30T04:58:51.010Z,22.80
2018-04-30T04:59:51.006Z,23.30
2018-04-30T05:00:50.999Z,22.50
2018-04-30T05:01:50.993Z,22.90
2018-04-30T05:02:50.989Z,21.10
2018-04-30T05:03:50.987Z,20.80
2018-04-30T05:04:50.982Z,23.40
2018-04-30T05:05:50.980Z,22.40
2018-04-30T05:06:50.976Z,22.30
2018-04-30T05:07:50.973Z,22.60
2018-04-30T05:08:50.969Z,21.50
2018-04-30T05:09:50.968Z,22.10
2018-04-30T05:10:51.036Z,23.70
2018-04-30T05:11:50.958Z,21.70
2018-04-30T05:12:50.958Z,20.80
2018-04-30T05:13:50.956Z,21.70
2018-04-30T05:14:50.947Z,22.10
2018-04-30T05:15:50.943Z,22.30
2018-04-30T05:16:50.944Z,19.70
2018-04-30T05:17:50.940Z,20.50
2018-04-30T05:18:50.935Z,19.40
2018-04-30T05:19:50.929Z,20.00
2018-04-30T05:20:50.954Z,20.40
2018-04-30T05:21:50.921Z,18.20
2018-04-30T05:22:50.917Z,17.40
2018-04-30T05:23:50.914Z,17.60
2018-04-30T05:24:50.914Z,16.10
2018-04-30T05:25:50.910Z,14.10
2018-04-30T05:26:50.903Z,12.60
2018-04-30T05:27:50.900Z,12.20
2018-04-30T05:28:50.896Z,12.70
2018-04-30T05:29:50.892Z,12.50
2018-04-30T05:30:50.889Z,12.30
2018-04-30T05:31:50.885Z,11.30
2018-04-30T05:32:50.881Z,11.30
2018-04-30T05:33:50.893Z,10.30
2018-04-30T05:34:50.873Z,9.90
2018-04-30T05:35:50.870Z,10.10
2018-04-30T05:36:50.874Z,8.60
2018-04-30T05:37:50.867Z,8.20
2018-04-30T05:38:50.864Z,7.30
2018-04-30T05:39:50.861Z,7.20
2018-04-30T05:40:50.851Z,7.00
2018-04-30T05:41:50.848Z,6.40
2018-04-30T05:42:50.845Z,6.30
2018-04-30T05:43:50.846Z,6.30
2018-04-30T05:44:50.837Z,7.00
2018-04-30T05:45:50.834Z,5.60
2018-04-30T05:46:50.831Z,5.00
2018-04-30T05:47:50.827Z,4.90
2018-04-30T05:48:50.825Z,5.00
2018-04-30T05:49:50.823Z,4.30
2018-04-30T05:50:50.820Z,4.10
2018-04-30T05:51:50.817Z,3.50
2018-04-30T05:52:50.809Z,3.70
2018-04-30T05:53:50.805Z,3.60
2018-04-30T05:54:50.802Z,3.90
2018-04-30T05:55:50.799Z,4.00
2018-04-30T05:56:50.804Z,4.30
2018-04-30T05:57:50.796Z,3.50
2018-04-30T05:58:50.788Z,3.40
2018-04-30T05:59:50.784Z,3.10
2018-04-30T06:00:50.780Z,3.70
2018-04-30T06:01:50.778Z,4.00
2018-04-30T06:02:50.774Z,3.30
2018-04-30T06:03:50.771Z,3.20
2018-04-30T06:04:50.766Z,3.40
2018-04-30T06:05:50.763Z,3.40
2018-04-30T06:06:50.767Z,3.60
2018-04-30T06:07:50.757Z,3.40
2018-04-30T06:08:50.757Z,3.70
2018-04-30T06:09:50.753Z,3.70
2018-04-30T06:10:50.750Z,3.80
2018-04-30T06:11:50.749Z,3.70
2018-04-30T06:12:50.738Z,3.50
2018-04-30T06:13:50.735Z,3.80
2018-04-30T06:14:50.732Z,3.40
2018-04-30T06:15:50.729Z,3.70
2018-04-30T06:16:50.724Z,3.60
2018-04-30T06:17:50.724Z,3.40
2018-04-30T06:18:50.719Z,4.20
2018-04-30T06:19:50.716Z,4.40
2018-04-30T06:20:50.712Z,4.30
2018-04-30T06:21:50.707Z,5.00
2018-04-30T06:22:50.708Z,4.40
2018-04-30T06:23:50.705Z,4.40
2018-04-30T06:24:50.697Z,4.50
2018-04-30T06:25:50.695Z,4.70
2018-04-30T06:26:50.800Z,5.00
2018-04-30T06:27:50.688Z,4.80
2018-04-30T06:28:50.684Z,5.80
2018-04-30T06:29:50.681Z,5.60
2018-04-30T06:30:50.680Z,4.80
2018-04-30T06:31:50.676Z,4.60
2018-04-30T06:32:50.676Z,3.70
2018-04-30T06:33:50.673Z,3.30
2018-04-30T06:34:50.665Z,3.20
2018-04-30T06:35:50.675Z,3.50
2018-04-30T06:36:50.663Z,3.20
2018-04-30T06:37:50.661Z,2.90
2018-04-30T06:38:50.652Z,3.20
2018-04-30T06:39:50.653Z,2.30
2018-04-30T06:40:50.646Z,2.10
2018-04-30T06:41:50.643Z,2.20
2018-04-30T06:42:50.638Z,2.20
2018-04-30T06:43:50.637Z,1.80
2018-04-30T06:44:50.631Z,1.50
2018-04-30T06:45:50.628Z,2.10
2018-04-30T06:46:50.629Z,1.60
2018-04-30T06:47:50.625Z,1.60
2018-04-30T06:48:50.617Z,1.80
2018-04-30T06:49:50.614Z,2.00
2018-04-30T06:50:50.615Z,1.70
2018-04-30T06:51:50.613Z,1.30
2018-04-30T06:52:50.604Z,1.90
2018-04-30T06:53:50.599Z,1.80
2018-04-30T06:54:50.598Z,1.80
2018-04-30T06:55:50.594Z,2.40
2018-04-30T06:56:50.590Z,2.10
2018-04-30T06:57:50.589Z,1.90
2018-04-30T06:58:50.585Z,1.50
2018-04-30T06:59:50.580Z,2.10
2018-04-30T07:00:50.577Z,2.40
2018-04-30T07:01:50.573Z,3.00
2018-04-30T07:02:50.572Z,2.20
2018-04-30T07:03:50.566Z,2.70
2018-04-30T07:04:50.567Z,2.50
2018-04-30T07:05:50.564Z,2.60
2018-04-30T07:06:50.562Z,2.40
2018-04-30T07:07:50.553Z,2.40
2018-04-30T07:08:50.552Z,2.50
2018-04-30T07:09:50.550Z,2.50
2018-04-30T07:10:50.543Z,2.10
2018-04-30T07:11:50.543Z,2.50
2018-04-30T07:12:50.537Z,2.70
2018-04-30T07:13:50.532Z,1.90
2018-04-30T07:14:50.529Z,2.70
2018-04-30T07:15:50.527Z,2.30
2018-04-30T07:16:50.524Z,2.80
2018-04-30T07:17:50.520Z,3.00
2018-04-30T07:18:50.520Z,2.50
2018-04-30T07:19:50.517Z,2.80
2018-04-30T07:20:50.510Z,2.80
2018-04-30T07:21:50.510Z,3.10
2018-04-30T07:22:50.508Z,2.30
2018-04-30T07:23:50.504Z,2.80
2018-04-30T07:24:50.497Z,2.60
2018-04-30T07:25:50.493Z,2.70
2018-04-30T07:26:50.491Z,3.30
2018-04-30T07:27:50.576Z,3.10
2018-04-30T07:28:50.484Z,2.70
2018-04-30T07:29:50.485Z,2.50
2018-04-30T07:30:50.481Z,2.20
2018-04-30T07:31:50.478Z,2.20
2018-04-30T07:32:50.469Z,2.80
2018-04-30T07:33:50.468Z,2.70
2018-04-30T07:34:50.464Z,2.20
2018-04-30T07:35:50.547Z,2.70
2018-04-30T07:36:50.456Z,2.70
2018-04-30T07:37:50.453Z,3.10
2018-04-30T07:38:50.453Z,2.70
2018-04-30T07:39:50.448Z,2.90
2018-04-30T07:40:50.446Z,2.50
2018-04-30T07:41:50.439Z,2.60
2018-04-30T07:42:50.439Z,3.00
2018-04-30T07:43:50.437Z,2.70
2018-04-30T07:44:50.430Z,2.80
2018-04-30T07:45:50.425Z,2.70
2018-04-30T07:46:50.425Z,2.60
2018-04-30T07:47:50.418Z,3.10
2018-04-30T07:48:50.418Z,3.00
2018-04-30T07:49:50.416Z,2.60
2018-04-30T07:50:50.407Z,2.90
2018-04-30T07:51:50.404Z,2.90
2018-04-30T07:52:50.401Z,2.70
2018-04-30T07:53:50.396Z,2.80
2018-04-30T07:54:50.400Z,2.40
2018-04-30T07:55:50.391Z,2.90
2018-04-30T07:56:50.387Z,3.00
2018-04-30T07:57:50.383Z,3.00
2018-04-30T07:58:50.379Z,3.30
2018-04-30T07:59:50.376Z,3.10
2018-04-30T08:00:50.423Z,3.20
2018-04-30T08:01:50.372Z,3.00
2018-04-30T08:02:50.369Z,3.20
2018-04-30T08:03:50.366Z,2.90
2018-04-30T08:04:50.357Z,2.30
2018-04-30T08:05:50.353Z,2.80
2018-04-30T08:06:50.351Z,3.10
2018-04-30T08:07:50.346Z,3.40
2018-04-30T08:08:50.342Z,2.90
2018-04-30T08:09:50.341Z,2.80
2018-04-30T08:10:50.335Z,3.20
2018-04-30T08:11:50.332Z,3.00
2018-04-30T08:12:50.328Z,3.50
2018-04-30T08:13:50.325Z,3.50
2018-04-30T08:14:50.343Z,3.10
2018-04-30T08:15:50.321Z,2.90
2018-04-30T08:16:50.312Z,2.80
2018-04-30T08:17:50.317Z,2.30
2018-04-30T08:18:50.305Z,2.10
2018-04-30T08:19:50.307Z,2.10
2018-04-30T08:20:50.301Z,2.10
2018-04-30T08:21:50.298Z,2.20
2018-04-30T08:22:50.291Z,2.20
2018-04-30T08:23:50.287Z,2.20
2018-04-30T08:24:50.283Z,2.40
2018-04-30T08:25:50.282Z,2.30
2018-04-30T08:26:50.281Z,2.20
2018-04-30T08:27:50.274Z,2.20
2018-04-30T08:28:50.269Z,2.00
2018-04-30T08:29:50.265Z,2.30
2018-04-30T08:30:50.268Z,2.50
2018-04-30T08:31:50.259Z,3.10
2018-04-30T08:32:50.258Z,2.90
2018-04-30T08:33:50.256Z,2.80
2018-04-30T08:34:50.250Z,2.70
2018-04-30T08:35:50.246Z,2.40
2018-04-30T08:36:50.241Z,2.70
2018-04-30T08:37:50.238Z,2.60
2018-04-30T08:38:50.234Z,2.60
2018-04-30T08:39:50.234Z,2.80
2018-04-30T08:40:50.230Z,2.10
2018-04-30T08:41:50.227Z,2.10
2018-04-30T08:42:50.220Z,1.80
2018-04-30T08:43:50.217Z,2.00
2018-04-30T08:44:50.217Z,2.10
2018-04-30T08:45:50.214Z,2.30
2018-04-30T08:46:50.205Z,1.60
2018-04-30T08:47:50.202Z,2.20
2018-04-30T08:48:50.198Z,2.90
2018-04-30T08:49:50.195Z,2.40
2018-04-30T08:50:50.194Z,2.70
2018-04-30T08:51:50.188Z,2.60
2018-04-30T08:52:50.185Z,2.40
2018-04-30T08:53:50.179Z,2.40
2018-04-30T08:54:50.186Z,2.30
2018-04-30T08:55:50.177Z,2.50
2018-04-30T08:56:50.168Z,2.30
2018-04-30T08:57:50.168Z,2.50
2018-04-30T08:58:50.168Z,1.90
2018-04-30T08:59:50.163Z,2.30
2018-04-30T09:00:50.155Z,2.20
2018-04-30T09:01:50.152Z,2.50
2018-04-30T09:02:50.148Z,2.40
2018-04-30T09:03:50.145Z,2.10
2018-04-30T09:04:50.140Z,2.20
2018-04-30T09:05:50.138Z,2.50
2018-04-30T09:06:50.137Z,3.00
2018-04-30T09:07:50.130Z,3.20
2018-04-30T09:08:50.126Z,3.60
2018-04-30T09:09:50.124Z,3.80
2018-04-30T09:10:50.119Z,3.90
2018-04-30T09:11:50.116Z,4.40
2018-04-30T09:12:50.116Z,5.30
2018-04-30T09:13:50.114Z,4.80
2018-04-30T09:14:50.108Z,5.10
2018-04-30T09:15:50.103Z,6.10
2018-04-30T09:16:50.104Z,5.70
2018-04-30T09:17:50.101Z,4.70
2018-04-30T09:18:50.095Z,4.90
2018-04-30T09:19:50.092Z,4.60
2018-04-30T09:20:50.088Z,5.30
2018-04-30T09:21:50.087Z,4.40
2018-04-30T09:22:50.084Z,4.60
2018-04-30T09:23:50.112Z,5.70
2018-04-30T09:24:50.079Z,5.90
2018-04-30T09:25:50.076Z,5.20
2018-04-30T09:26:50.079Z,4.50
2018-04-30T09:27:50.075Z,4.60
2018-04-30T09:28:50.068Z,4.40
2018-04-30T09:29:50.066Z,5.50
2018-04-30T09:30:50.068Z,6.00
2018-04-30T09:31:50.066Z,6.00
2018-04-30T09:32:50.061Z,5.50
2018-04-30T09:33:50.056Z,5.00
2018-04-30T09:34:50.055Z,6.10
2018-04-30T09:35:50.053Z,6.60
2018-04-30T09:36:50.055Z,5.20
2018-04-30T09:37:50.048Z,7.10
2018-04-30T09:38:50.052Z,6.80
2018-04-30T09:39:50.049Z,273.50
2018-04-30T09:40:50.043Z,999.90
2018-04-30T09:41:50.042Z,999.90
2018-04-30T09:42:50.041Z,999.90
2018-04-30T09:43:50.040Z,809.50
2018-04-30T09:44:50.040Z,178.90
2018-04-30T09:45:50.045Z,179.10
2018-04-30T09:46:50.038Z,73.20
2018-04-30T09:47:50.037Z,38.80
2018-04-30T09:48:50.036Z,14.50
2018-04-30T09:49:50.036Z,9.70
2018-04-30T09:50:50.040Z,7.30
2018-04-30T09:51:50.045Z,7.50
2018-04-30T09:52:50.035Z,7.60
2018-04-30T09:53:50.036Z,7.10
2018-04-30T09:54:50.037Z,6.50
2018-04-30T09:55:50.038Z,7.40
2018-04-30T09:56:50.043Z,8.20
2018-04-30T09:57:50.058Z,12.00
2018-04-30T09:58:50.043Z,7.60
2018-04-30T09:59:50.044Z,51.50
2018-04-30T10:00:50.045Z,10.10
2018-04-30T10:01:50.047Z,7.40
2018-04-30T10:02:50.050Z,25.00
2018-04-30T10:03:50.055Z,9.20
2018-04-30T10:04:50.052Z,8.00
2018-04-30T10:05:50.053Z,6.90
2018-04-30T10:06:50.055Z,12.60
2018-04-30T10:07:50.056Z,7.40
2018-04-30T10:08:50.062Z,7.50
2018-04-30T10:09:50.064Z,14.90
2018-04-30T10:10:50.066Z,19.20
2018-04-30T10:11:50.068Z,9.10
2018-04-30T10:12:50.064Z,27.60
2018-04-30T10:13:50.067Z,8.60
2018-04-30T10:14:50.069Z,8.00
2018-04-30T10:15:50.071Z,8.30
2018-04-30T10:16:50.073Z,8.10
2018-04-30T10:17:50.099Z,7.30
2018-04-30T10:18:50.079Z,8.50
2018-04-30T10:19:50.085Z,6.80
2018-04-30T10:20:50.087Z,6.60
2018-04-30T10:21:50.093Z,6.40
2018-04-30T10:22:50.103Z,6.80
2018-04-30T10:23:50.213Z,7.10
2018-04-30T10:24:50.110Z,6.40
2018-04-30T10:25:50.115Z,6.90
2018-04-30T10:26:50.122Z,7.10
2018-04-30T10:27:50.129Z,7.20
2018-04-30T10:28:50.139Z,7.30
2018-04-30T10:29:50.147Z,7.80
2018-04-30T10:30:50.148Z,7.40
2018-04-30T10:31:50.159Z,8.40
2018-04-30T10:32:50.160Z,8.60
2018-04-30T10:33:50.166Z,8.90
2018-04-30T10:34:50.172Z,8.80
2018-04-30T10:35:50.177Z,9.00
2018-04-30T10:36:50.181Z,8.70
2018-04-30T10:37:50.261Z,9.80
2018-04-30T10:38:50.191Z,8.70
2018-04-30T10:39:50.196Z,9.50
2018-04-30T10:40:50.205Z,9.90
2018-04-30T10:41:50.210Z,24.40
2018-04-30T10:42:50.211Z,11.00
2018-04-30T10:43:50.217Z,18.60
2018-04-30T10:44:50.213Z,18.50
2018-04-30T10:45:50.323Z,9.10
2018-04-30T10:46:50.220Z,18.50
2018-04-30T10:47:50.223Z,9.30
2018-04-30T10:48:50.228Z,8.90
2018-04-30T10:49:50.227Z,8.80
2018-04-30T10:50:50.229Z,9.60
2018-04-30T10:51:50.230Z,8.40
2018-04-30T10:52:50.231Z,10.10
2018-04-30T10:53:50.234Z,14.20
2018-04-30T10:54:50.239Z,78.70
2018-04-30T10:55:50.239Z,19.60
2018-04-30T10:56:50.236Z,10.10
2018-04-30T10:57:50.238Z,8.10
2018-04-30T10:58:50.238Z,11.40
2018-04-30T10:59:50.240Z,10.20
2018-04-30T11:00:50.241Z,8.60
2018-04-30T11:01:50.242Z,8.90
2018-04-30T11:02:50.238Z,9.00
2018-04-30T11:03:50.238Z,61.30
2018-04-30T11:04:50.237Z,31.30
2018-04-30T11:05:50.237Z,12.10
2018-04-30T11:06:50.239Z,14.10
2018-04-30T11:07:50.237Z,11.10
2018-04-30T11:08:50.235Z,9.70
2018-04-30T11:09:50.236Z,9.60
2018-04-30T11:10:50.235Z,10.20
2018-04-30T11:11:50.235Z,18.90
2018-04-30T11:12:50.239Z,19.20
2018-04-30T11:13:50.237Z,59.00
2018-04-30T11:14:50.236Z,14.30
2018-04-30T11:15:50.237Z,10.10
2018-04-30T11:16:50.230Z,8.40
2018-04-30T11:17:50.229Z,9.50
2018-04-30T11:18:50.229Z,14.50
2018-04-30T11:19:50.228Z,20.30
2018-04-30T11:20:50.228Z,26.40
2018-04-30T11:21:50.228Z,8.50
2018-04-30T11:22:50.229Z,10.30
2018-04-30T11:23:50.225Z,7.80
2018-04-30T11:24:50.222Z,10.40
2018-04-30T11:25:50.221Z,18.50
2018-04-30T11:26:50.225Z,25.00
2018-04-30T11:27:50.224Z,9.00
2018-04-30T11:28:50.216Z,19.80
2018-04-30T11:29:50.215Z,8.40
2018-04-30T11:30:50.218Z,7.70
2018-04-30T11:31:50.214Z,12.10
2018-04-30T11:32:50.217Z,7.70
2018-04-30T11:33:50.216Z,14.10
2018-04-30T11:34:50.210Z,7.30
2018-04-30T11:35:50.210Z,7.60
2018-04-30T11:36:50.208Z,10.00
2018-04-30T11:37:50.208Z,8.10
2018-04-30T11:38:50.208Z,10.20
2018-04-30T11:39:50.207Z,78.40
2018-04-30T11:40:50.206Z,7.10
2018-04-30T11:41:50.206Z,7.80
2018-04-30T11:42:50.212Z,7.50
2018-04-30T11:43:50.206Z,8.60
2018-04-30T11:44:50.209Z,10.40
2018-04-30T11:45:50.210Z,13.90
2018-04-30T11:46:50.205Z,14.50
2018-04-30T11:47:50.206Z,8.10
2018-04-30T11:48:50.205Z,7.60
2018-04-30T11:49:50.205Z,6.90
2018-04-30T11:50:50.206Z,12.50
2018-04-30T11:51:50.210Z,7.30
2018-04-30T11:52:50.210Z,9.20
2018-04-30T11:53:50.211Z,9.90
2018-04-30T11:54:50.208Z,7.60
2018-04-30T11:55:50.208Z,7.70
2018-04-30T11:56:50.212Z,8.30
2018-04-30T11:57:50.218Z,8.60
2018-04-30T11:58:50.210Z,11.50
2018-04-30T11:59:50.210Z,9.50
2018-04-30T12:00:50.209Z,15.70
2018-04-30T12:01:50.213Z,7.00
2018-04-30T12:02:50.211Z,7.10
2018-04-30T12:03:50.215Z,7.00
2018-04-30T12:04:50.286Z,9.40
2018-04-30T12:05:50.213Z,37.70
2018-04-30T12:06:50.218Z,12.50
2018-04-30T12:07:50.218Z,11.20
2018-04-30T12:08:50.214Z,7.40
2018-04-30T12:09:50.214Z,7.60
2018-04-30T12:10:50.219Z,6.90
2018-04-30T12:11:50.220Z,9.30
2018-04-30T12:12:50.216Z,17.30
2018-04-30T12:13:50.224Z,15.00
2018-04-30T12:14:50.218Z,7.10
2018-04-30T12:15:50.217Z,25.50
2018-04-30T12:16:50.217Z,8.70
2018-04-30T12:17:50.216Z,10.80
2018-04-30T12:18:50.219Z,21.10
2018-04-30T12:19:50.221Z,9.00
2018-04-30T12:20:50.216Z,14.40
2018-04-30T12:21:50.228Z,21.30
2018-04-30T12:22:50.219Z,36.50
2018-04-30T12:23:50.217Z,26.20
2018-04-30T12:24:50.219Z,52.20
2018-04-30T12:25:50.223Z,7.10
2018-04-30T12:26:50.215Z,15.30
2018-04-30T12:28:08.848Z,227.50
2018-04-30T12:29:08.841Z,65.30
2018-04-30T12:30:08.842Z,41.60
2018-04-30T12:31:08.842Z,9.80
2018-04-30T12:32:08.841Z,7.50
2018-04-30T12:33:08.843Z,21.50
2018-04-30T12:34:08.843Z,16.90
2018-04-30T12:35:08.844Z,11.70
2018-04-30T12:36:08.900Z,5.60
2018-04-30T12:37:08.841Z,32.40
2018-04-30T12:38:08.845Z,27.20
2018-04-30T12:39:08.837Z,5.30
2018-04-30T12:40:08.837Z,13.00
2018-04-30T12:41:08.835Z,6.80
2018-04-30T12:42:08.835Z,14.70
2018-04-30T12:43:08.835Z,6.60
2018-04-30T12:44:08.835Z,6.80
2018-04-30T12:45:08.835Z,6.10
2018-04-30T12:46:08.834Z,50.80
2018-04-30T12:47:08.838Z,10.60
2018-04-30T12:48:08.838Z,6.30
2018-04-30T12:49:08.833Z,5.70
2018-04-30T12:50:08.832Z,5.60
2018-04-30T12:51:08.838Z,44.50
2018-04-30T12:52:08.837Z,13.90
2018-04-30T12:53:08.830Z,26.00
2018-04-30T12:54:08.830Z,6.00
2018-04-30T12:55:08.829Z,8.50
2018-04-30T12:56:08.830Z,38.90
2018-04-30T12:57:08.831Z,13.70
2018-04-30T12:58:08.828Z,31.90
2018-04-30T12:59:08.828Z,9.80
2018-04-30T13:00:08.827Z,52.00
2018-04-30T13:01:08.826Z,23.70
2018-04-30T13:02:08.825Z,8.30
2018-04-30T13:03:08.824Z,8.50
2018-04-30T13:04:08.822Z,8.20